Tiempo atmosférico en la estación meteorológica de Es Mercadal, Illes Balears (77 m.)

Fecha
DESCASC
Temp. máxima en grados centígrados (hora)
DESCASC
Temp. mínima en grados centígrados (hora)
DESCASC
Temp. media en grados centígrados
DESCASC
Racha de viento máxima en m/sg (hora)
DESCASC
Velocidad máxima media en intervalos de 10 minutos(hora)
DESCASC
Precipitaciones diarias en mm
DESCASC
Precipitaciones de 00:00 a 06:00 en mm
DESCASC
Precipitaciones de 06:00 a 12:00 en mm
DESCASC
Precipitaciones de 12:00 a 18:00 en mm
DESCASC
Precipitaciones de 18:00 a 24:00 en mm
DESCASC
23-11-2017 20.3 (14:10) 12.2 (07:20) 16.2 8.06 (22:20) 5.83 (22:30) 0 0 0 0 0
22-11-2017 18.3 (13:40) 12.7 (04:40) 15.5 9.72 (13:00) 5.83 (11:50) 0 0 0 0 0
21-11-2017 19.9 (14:00) 12.2 (04:50) 16 6.11 (10:40) 4.17 (11:00) 0 0 0 0 0
20-11-2017 18.5 (13:20) 11.5 (03:00) 15 6.39 (14:00) 4.44 (13:50) 0 0 0 0 0
19-11-2017 18.2 (13:40) 10.2 (00:00) 14.2 9.17 (13:30) 5.56 (13:30) 0 0 0 0 0
18-11-2017 15.7 (10:00) 11.1 (00:00) 13.4 10.83 (10:40) 7.22 (07:30) 0 0 0 0 0
17-11-2017 18 (12:10) 10.3 (00:00) 14.2 9.17 (13:50) 5.83 (23:10) 0 0 0 0 0
16-11-2017 16.5 (14:00) 10.7 (00:00) 13.6 6.11 (03:50) 4.17 (15:00) 0 0 0 0 0
15-11-2017 14.9 (13:10) 11 (00:00) 12.9 13.33 (02:20) 8.33 (02:00) 0 0 0 0 0
14-11-2017 11.8 (21:10) 7.7 (00:00) 9.8 23.33 (01:00) 16.39 (01:00) 1.8 1.8 0 0 0
13-11-2017 17 (03:00) 7.4 (00:00) 12.2 26.39 (23:30) 17.22 (12:50) 2 0.6 0 0 1.4
12-11-2017 19.3 (12:20) 13.3 (00:00) 16.3 9.44 (11:00) 6.39 (11:00) 0 0 0 0 0
11-11-2017 16.4 (12:40) 13.4 (00:00) 14.9 16.11 (07:10) 10.28 (06:30) 0 0 0 0 0
10-11-2017 15.2 (22:40) 9.4 (00:00) 12.3 17.5 (20:40) 12.22 (22:40) 1.8 1.8 0 0 0
09-11-2017 13.3 (13:20) 10.6 (00:00) 12 15.28 (18:30) 10.56 (18:30) 1 1 0 0 0
08-11-2017 18.1 (14:10) 9.6 (00:00) 13.9 13.06 (23:30) 9.44 (22:50) 0.4 0 0 0 0.4
07-11-2017 15 (16:20) 10 (00:00) 12.5 17.5 (04:10) 10 (01:40) 0 0 0 0 0
06-11-2017 14.4 (10:00) 8.7 (00:00) 11.5 21.67 (14:00) 12.78 (14:00) 11 10.6 0.2 0.2 0
05-11-2017 -- (--) -- (--) -- 11.67 (12:10) 8.61 (12:20) 10.8 0 3 4.2 3.6
04-11-2017 24.8 (12:30) 14.9 (00:00) 19.8 14.17 (21:10) 8.06 (23:20) 2.4 0 0 0 2.4
03-11-2017 23.5 (13:30) 14.1 (00:00) 18.8 6.39 (11:40) 4.17 (13:40) 0 0 0 0 0
02-11-2017 22.6 (13:40) 13.3 (03:40) 18 6.67 (14:00) 4.17 (14:00) 0 0 0 0 0
01-11-2017 -- (--) -- (--) -- -- (--) -- (--) -- 0 0 -- 0
31-10-2017 19.2 (14:00) 14.6 (00:00) 16.9 10 (00:20) 6.39 (00:20) 0 0 0 0 0
30-10-2017 19.8 (09:50) 14.1 (00:00) 16.9 10.83 (22:50) 6.67 (21:40) 0 0 0 0 0
29-10-2017 23.2 (12:30) 14.8 (00:00) 19 10.28 (15:30) 7.22 (14:50) 0 0 0 0 0
28-10-2017 20.4 (00:10) 15.6 (00:00) 18 22.5 (02:50) 14.72 (06:00) 0 0 0 0 0
27-10-2017 25.6 (13:50) 17.3 (00:00) 21.4 15.28 (23:10) 9.72 (22:10) 0 0 0 0 0
26-10-2017 24.3 (16:10) 16.5 (00:00) 20.4 6.67 (14:50) 5 (14:20) 0 0 0 0 0

Gráficas

Temp. máximas Temp. mínimas Temp. medias Precipitaciones Rachas de viento máximas Velocidades máximas media en intervalos de 10 minutos

Datos horarios

Fecha y hora oficial Temperatura (ºC) Velocidad del viento (km/h) Dirección del viento Racha (km/h) Dirección de racha Precipitación (mm) Presión (hPa) Tendencia (hPa) Humedad (%)
2017-11-24 23:00:00 16.4 13 Sudoeste 23 Sudoeste 0 -- -- 95
2017-11-24 22:00:00 16.4 17 Sudoeste 24 Sudoeste 0 -- -- 94
2017-11-24 21:00:00 16.3 13 Sudoeste 21 Sur 0 -- -- 96
2017-11-24 20:00:00 16.6 14 Sudoeste 22 Sur 0 -- -- 96
2017-11-24 19:00:00 16.8 9 Sudoeste 17 Sur 0 -- -- 95
2017-11-24 18:00:00 17.3 14 Sur 26 Sudoeste 0 -- -- 95
2017-11-24 17:00:00 18.3 20 Sudoeste 27 Sudoeste 0 -- -- 90
2017-11-24 16:00:00 19.8 18 Sudoeste 30 Sudoeste 0 -- -- 82
2017-11-24 15:00:00 20.4 19 Sudoeste 28 Sudoeste 0 -- -- 75
2017-11-24 14:00:00 21.1 12 Sudoeste 26 Sur 0 -- -- 69
2017-11-24 13:00:00 20.3 18 Sur 26 Sur 0 -- -- 77
2017-11-24 12:00:00 19.1 12 Sur 30 Sudoeste 0 -- -- 81
2017-11-24 11:00:00 19.3 23 Sudoeste 41 Sudoeste 0 -- -- 84
2017-11-24 10:00:00 17.9 16 Sudoeste 30 Sudoeste 0 -- -- 94
2017-11-24 09:00:00 17.2 17 Sudoeste 30 Sudoeste 0 -- -- 95
2017-11-24 08:00:00 16.4 19 Sudoeste 33 Sur 0 -- -- 96
2017-11-24 07:00:00 16 18 Sudoeste 25 Sudoeste 0 -- -- 97
2017-11-24 06:00:00 15.8 9 Sur 21 Sudoeste 0 -- -- 97
2017-11-24 05:00:00 15.7 12 Sur 19 Sur 0 -- -- 97
2017-11-24 04:00:00 15.8 10 Sudoeste 18 Sudoeste 0 -- -- 96
2017-11-24 03:00:00 15.8 9 Sur 22 Sudoeste 0 -- -- 95
2017-11-24 02:00:00 16 18 Sudoeste 26 Sudoeste 0 -- -- 94
2017-11-24 01:00:00 15.6 17 Sudoeste 27 Sudoeste 0 -- -- 95
2017-11-24 00:00:00 15.9 17 Sudoeste 27 Sudoeste 0 -- -- 92
2017-11-23 23:00:00 15.6 15 Sur 29 Sudoeste 0 -- -- 91
2017-11-23 22:00:00 15.3 14 Sur 21 Sudoeste 0 -- -- 91
2017-11-23 21:00:00 15.3 14 Sur 21 Sudoeste 0 -- -- 91
2017-11-23 20:00:00 15.2 10 Sur 18 Sur 0 -- -- 90
2017-11-23 19:00:00 15.3 15 Sudoeste 19 Sur 0 -- -- 89
2017-11-23 18:00:00 15.7 4 Sur 13 Sudoeste 0 -- -- 85
2017-11-23 17:00:00 17.4 10 Sudoeste 18 Sudoeste 0 -- -- 76
2017-11-23 16:00:00 18.8 12 Sudoeste 21 Sudoeste 0 -- -- 72
2017-11-23 15:00:00 19.5 14 Sudoeste 19 Sur 0 -- -- 65
2017-11-23 14:00:00 20.2 12 Sudoeste 23 Sudoeste 0 -- -- 61
2017-11-23 13:00:00 19.9 12 Sudoeste 21 Oeste 0 -- -- 60
2017-11-23 12:00:00 19.6 11 Sudoeste 21 Oeste 0 -- -- 67
2017-11-23 11:00:00 18.7 12 Sudoeste 19 Sudoeste 0 -- -- 75
2017-11-23 10:00:00 17.4 8 Sur 13 Sur 0 -- -- 82
2017-11-23 09:00:00 14.5 3 Sur 7 Sur 0 -- -- 91
2017-11-23 08:00:00 12.8 3 Sur 10 Sur 0 -- -- 93
2017-11-23 07:00:00 12.7 3 Sudoeste 6 Sudoeste 0 -- -- 92
2017-11-23 06:00:00 12.7 0 Calma 6 Sur 0 -- -- 93
2017-11-23 05:00:00 12.9 3 Sudoeste 9 Sudoeste 0 -- -- 93
2017-11-23 04:00:00 12.9 5 Sur 15 Sudeste 0 -- -- 93
2017-11-23 03:00:00 13 8 Sur 13 Sur 0 -- -- 93
2017-11-23 02:00:00 13.2 14 Sudeste 17 Sudeste 0 -- -- 93
2017-11-23 01:00:00 13.7 7 Sudeste 18 Sudeste 0 -- -- 89
2017-11-23 00:00:00 13.6 12 Sur 17 Sur 0 -- -- 90
2017-11-22 23:00:00 12.7 7 Sur 15 Sudeste 0 -- -- 89
2017-11-22 22:00:00 13.2 11 Sudeste 14 Sudeste 0 -- -- 89
2017-11-22 21:00:00 13.1 5 Sur 9 Sudeste 0 -- -- 87
2017-11-22 20:00:00 14 7 Sur 15 Sudeste 0 -- -- 85
2017-11-22 19:00:00 14.4 7 Sudeste 15 Sur 0 -- -- 84
2017-11-22 18:00:00 15.2 9 Sur 18 Sur 0 -- -- 80
2017-11-22 17:00:00 16 11 Sur 22 Sur 0 -- -- 78
2017-11-22 16:00:00 16.8 15 Sudoeste 25 Sur 0 -- -- 73
2017-11-22 15:00:00 17.5 13 Sur 27 Sur 0 -- -- 71
2017-11-22 14:00:00 17.8 15 Sur 27 Sudoeste 0 -- -- 74
2017-11-22 13:00:00 18.1 20 Sur 35 Sur 0 -- -- 71
2017-11-22 12:00:00 17.6 18 Sur 29 Sur 0 -- -- 70
2017-11-22 11:00:00 17.4 15 Sudoeste 27 Sur 0 -- -- 72
2017-11-22 10:00:00 17.4 11 Sur 22 Sur 0 -- -- 72
2017-11-22 09:00:00 14.5 6 Sudeste 13 Sur 0 -- -- 84
2017-11-22 08:00:00 13.6 9 Sudeste 14 Sur 0 -- -- 86
2017-11-22 07:00:00 13.5 5 Sur 11 Sudeste 0 -- -- 89
2017-11-22 06:00:00 13.4 6 Sur 9 Sur 0 -- -- 89
2017-11-22 05:00:00 12.9 8 Sur 9 Sur 0 -- -- 91
2017-11-22 04:00:00 13.4 6 Sur 9 Sur 0 -- -- 90
2017-11-22 03:00:00 13.5 3 Oeste 8 Sur 0 -- -- 91
2017-11-22 02:00:00 14.1 6 Sudoeste 9 Sur 0 -- -- 88
2017-11-22 01:00:00 14.4 9 Sur 11 Sur 0 -- -- 90
2017-11-22 00:00:00 14.2 8 Sur 10 Sur 0 -- -- 91
2017-11-21 23:00:00 14.6 12 Sur 14 Sudoeste -- -- -- 90
2017-11-21 22:00:00 14.5 11 Sur 18 Sudoeste 0 -- -- 89
2017-11-21 21:00:00 14.4 13 Sur 15 Sur 0 -- -- 87
2017-11-21 20:00:00 14.3 8 Sudoeste 12 Sur 0 -- -- 86
2017-11-21 19:00:00 14.5 8 Sur 11 Sur 0 -- -- 85
2017-11-21 18:00:00 15.2 9 Sur 12 Sur 0 -- -- 83
2017-11-21 17:00:00 17.5 9 Sudoeste 16 Sur 0 -- -- 74
2017-11-21 16:00:00 19 8 Oeste 17 Oeste 0 -- -- 67
2017-11-21 15:00:00 19.5 11 Sudoeste 19 Oeste 0 -- -- 62
2017-11-21 14:00:00 19.9 13 Oeste 22 Oeste 0 -- -- 61
2017-11-21 13:00:00 18.9 13 Oeste 17 Oeste 0 -- -- 67
2017-11-21 12:00:00 19.4 10 Sudoeste 18 Sudoeste 0 -- -- 67
2017-11-21 11:00:00 16.9 15 Oeste 22 Oeste 0 -- -- 82
2017-11-21 10:00:00 16.9 9 Sudoeste 14 Sudoeste 0 -- -- 87
2017-11-21 09:00:00 14.6 7 Sudoeste 9 Sudoeste 0 -- -- 95
2017-11-21 08:00:00 13 5 Sudoeste 8 Sudoeste 0 -- -- 95
2017-11-21 07:00:00 13.2 8 Sudoeste 11 Sudoeste 0 -- -- 95
2017-11-21 06:00:00 13.3 8 Sudoeste 13 Sudoeste 0 -- -- 95
2017-11-21 05:00:00 12.5 11 Sudoeste 13 Sudoeste 0 -- -- 96
2017-11-21 04:00:00 12.7 6 Sudoeste 9 Sudoeste 0 -- -- 94
2017-11-21 03:00:00 12.6 8 Sudoeste 9 Sudoeste 0 -- -- 92
2017-11-21 02:00:00 12.4 8 Sudoeste 9 Sudoeste 0 -- -- 90
2017-11-21 01:00:00 12.4 8 Sudoeste 11 Sudoeste 0 -- -- 90
2017-11-21 00:00:00 12.6 10 Sudoeste 11 Sudoeste 0 -- -- 91
2017-11-20 23:00:00 12.3 5 Sudoeste 7 Sudoeste 0 -- -- 90
2017-11-20 22:00:00 11.8 5 Sudoeste 7 Sudoeste 0 -- -- 86
2017-11-20 21:00:00 12.6 6 Sudoeste 8 Sudoeste 0 -- -- 82
2017-11-20 20:00:00 12.5 4 Sudoeste 12 Sur 0 -- -- 81
2017-11-20 19:00:00 13.1 5 Sudoeste 9 Sudoeste 0 -- -- 80
2017-11-20 18:00:00 14.2 5 Oeste 11 Noroeste 0 -- -- 76
2017-11-20 17:00:00 16.4 8 Oeste 18 Noroeste 0 -- -- 68
2017-11-20 16:00:00 17.1 13 Noroeste 22 Noroeste 0 -- -- 61
2017-11-20 15:00:00 17.7 15 Norte 22 Norte 0 -- -- 66
2017-11-20 14:00:00 18 14 Noroeste 23 Noroeste 0 -- -- 64
2017-11-20 13:00:00 18.1 10 Noroeste 21 Norte 0 -- -- 64
2017-11-20 12:00:00 17.8 6 Oeste 21 Oeste 0 -- -- 66
2017-11-20 11:00:00 16.7 13 Oeste 20 Oeste 0 -- -- 71
2017-11-20 10:00:00 16.4 11 Oeste 17 Noroeste 0 -- -- 77
2017-11-20 09:00:00 13.7 5 Oeste 8 Oeste 0 -- -- 85
2017-11-20 08:00:00 12.2 5 Sudoeste 8 Oeste 0 -- -- 88
2017-11-20 07:00:00 12.1 5 Oeste 8 Oeste 0 -- -- 85
2017-11-20 06:00:00 12 4 Sudoeste 10 Sudoeste 0 -- -- 82
2017-11-20 05:00:00 12.1 6 Sudoeste 7 Sudoeste 0 -- -- 78
2017-11-20 04:00:00 12.1 6 Sudoeste 9 Sudoeste 0 -- -- 82
2017-11-20 03:00:00 11.5 5 Sudoeste 9 Sudoeste 0 -- -- 83
2017-11-20 02:00:00 12 5 Sudoeste 7 Sudoeste 0 -- -- 78
2017-11-20 01:00:00 12.4 3 Sudoeste 5 Oeste 0 -- -- 77
2017-11-20 00:00:00 11.9 2 Sudoeste 5 Sudoeste 0 -- -- 84
2017-11-19 23:00:00 11.9 3 Sur 6 Sudoeste 0 -- -- 86
2017-11-19 22:00:00 12.7 0 Calma 5 Oeste 0 -- -- 87
2017-11-19 21:00:00 13 2 Oeste 10 Noroeste 0 -- -- 86
2017-11-19 20:00:00 12.8 5 Oeste 9 Oeste 0 -- -- 86
2017-11-19 19:00:00 13.6 4 Noroeste 12 Oeste 0 -- -- 84
2017-11-19 18:00:00 14.4 6 Oeste 17 Noroeste 0 -- -- 82
2017-11-19 17:00:00 16.1 10 Noroeste 18 Noroeste 0 -- -- 78
2017-11-19 16:00:00 17.4 8 Noroeste 21 Noroeste 0 -- -- 74
2017-11-19 15:00:00 18 12 Norte 28 Noroeste 0 -- -- 71
2017-11-19 14:00:00 17.9 19 Noroeste 33 Norte 0 -- -- 62
2017-11-19 13:00:00 17.8 14 Noroeste 29 Oeste 0 -- -- 66
2017-11-19 12:00:00 17 17 Noroeste 29 Noroeste 0 -- -- 72
2017-11-19 11:00:00 16.7 13 Oeste 23 Oeste 0 -- -- 78
2017-11-19 10:00:00 15.9 9 Oeste 17 Sudoeste 0 -- -- 83
2017-11-19 09:00:00 13.7 9 Sudoeste 13 Sudoeste 0 -- -- 87
2017-11-19 08:00:00 10.7 9 Sudoeste 10 Sudoeste 0 -- -- 90
2017-11-19 07:00:00 10.5 7 Sudoeste 8 Sudoeste 0 -- -- 90
2017-11-19 06:00:00 10.7 4 Sudoeste 5 Sudoeste 0 -- -- 88
2017-11-19 05:00:00 11.2 5 Sudoeste 6 Sudoeste 0 -- -- 86
2017-11-19 04:00:00 11 3 Sudoeste 5 Sudoeste 0 -- -- 84
2017-11-19 03:00:00 11.6 3 Sudoeste 5 Sudoeste 0 -- -- 83
2017-11-19 02:00:00 11.4 2 Sur 8 Oeste 0 -- -- 84
2017-11-19 01:00:00 11.5 3 Sudoeste 6 Noroeste 0 -- -- 83
2017-11-19 00:00:00 12 3 Oeste 9 Noroeste 0 -- -- 82
2017-11-18 23:00:00 11.6 3 Sudoeste 4 Sudoeste 0 -- -- 85
2017-11-18 22:00:00 11.4 0 Calma 5 Sudoeste 0 -- -- 86
2017-11-18 21:00:00 11.1 3 Oeste 4 Oeste 0 -- -- 84
2017-11-18 20:00:00 11.4 3 Sudoeste 7 Norte 0 -- -- 83
2017-11-18 19:00:00 12.2 6 Nordeste 14 Norte 0 -- -- 78
2017-11-18 18:00:00 12.9 10 Norte 16 Norte 0 -- -- 74
2017-11-18 17:00:00 13.9 10 Nordeste 21 Norte 0 -- -- 70
2017-11-18 16:00:00 14.9 16 Norte 27 Nordeste 0 -- -- 66
2017-11-18 15:00:00 15.2 17 Norte 34 Norte 0 -- -- 68
2017-11-18 14:00:00 15.4 25 Norte 37 Norte 0 -- -- 65
2017-11-18 13:00:00 15.4 23 Norte 35 Norte 0 -- -- 67
2017-11-18 12:00:00 15.5 22 Norte 35 Norte 0 -- -- 65
2017-11-18 11:00:00 15.6 23 Norte 39 Norte 0 -- -- 63
2017-11-18 10:00:00 15.7 23 Norte 38 Norte 0 -- -- 64
2017-11-18 09:00:00 14.8 21 Norte 36 Norte 0 -- -- 66
2017-11-18 08:00:00 13.9 24 Norte 38 Norte 0 -- -- 69
2017-11-18 07:00:00 13.1 18 Norte 28 Norte 0 -- -- 73
2017-11-18 06:00:00 13 14 Norte 27 Norte 0 -- -- 76
2017-11-18 05:00:00 13.5 18 Norte 25 Norte 0 -- -- 70
2017-11-18 04:00:00 12.6 10 Norte 18 Norte 0 -- -- 73
2017-11-18 03:00:00 13.5 7 Noroeste 11 Norte 0 -- -- 76
2017-11-18 02:00:00 13.1 7 Norte 13 Norte 0 -- -- 76
2017-11-18 01:00:00 13.3 10 Norte 24 Norte 0 -- -- 75
2017-11-18 00:00:00 14 17 Norte 31 Norte 0 -- -- 69
2017-11-17 23:00:00 13.8 17 Norte 25 Norte 0 -- -- 67
2017-11-17 22:00:00 13.1 6 Norte 9 Noroeste 0 -- -- 70
2017-11-17 21:00:00 13.2 8 Norte 15 Norte 0 -- -- 68
2017-11-17 20:00:00 13.4 9 Norte 17 Norte 0 -- -- 66
2017-11-17 19:00:00 13.6 11 Norte 15 Norte 0 -- -- 64
2017-11-17 18:00:00 14.4 11 Norte 21 Norte 0 -- -- 62
2017-11-17 17:00:00 16.2 13 Noroeste 27 Norte 0 -- -- 69
2017-11-17 16:00:00 17.2 17 Noroeste 28 Noroeste 0 -- -- 64
2017-11-17 15:00:00 17.7 17 Noroeste 29 Noroeste 0 -- -- 61
2017-11-17 14:00:00 17.6 20 Norte 33 Norte 0 -- -- 57
2017-11-17 13:00:00 17.9 15 Noroeste 28 Noroeste 0 -- -- 58
2017-11-17 12:00:00 17.6 13 Noroeste 24 Noroeste 0 -- -- 63
2017-11-17 11:00:00 17 12 Noroeste 22 Noroeste 0 -- -- 69
2017-11-17 10:00:00 16 8 Noroeste 16 Oeste 0 -- -- 76
2017-11-17 09:00:00 13.9 0 Calma 6 Sudoeste 0 -- -- 87
2017-11-17 08:00:00 11.5 3 Sudoeste 8 Sudoeste 0 -- -- 93
2017-11-17 07:00:00 11.2 5 Sudoeste 8 Sudoeste 0 -- -- 92
2017-11-17 06:00:00 10.7 4 Oeste 12 Noroeste 0 -- -- 92
2017-11-17 05:00:00 10.8 6 Sudoeste 8 Oeste 0 -- -- 89
2017-11-17 04:00:00 11.2 2 Oeste 6 Oeste 0 -- -- 89
2017-11-17 03:00:00 10.8 6 Oeste 8 Oeste 0 -- -- 87
2017-11-17 02:00:00 10.8 0 Calma 4 Noroeste 0 -- -- 87
2017-11-17 01:00:00 10.3 3 Oeste 6 Oeste 0 -- -- 89
2017-11-17 00:00:00 10.8 0 Calma 3 Sudoeste 0 -- -- 91
2017-11-16 23:00:00 10.8 0 Calma 4 Oeste 0 -- -- 91
2017-11-16 22:00:00 10.9 0 Calma 3 Norte 0 -- -- 92
2017-11-16 21:00:00 11.1 3 Noroeste 5 Oeste 0 -- -- 91
2017-11-16 20:00:00 11.3 0 Calma 2 Sudoeste 0 -- -- 89
2017-11-16 19:00:00 11.8 4 Oeste 5 Oeste 0 -- -- 86
2017-11-16 18:00:00 13.2 2 Norte 13 Noroeste 0 -- -- 82
2017-11-16 17:00:00 14.8 9 Norte 19 Norte 0 -- -- 78
2017-11-16 16:00:00 15.6 12 Norte 20 Noroeste 0 -- -- 76
2017-11-16 15:00:00 16 15 Norte 21 Norte 0 -- -- 75
2017-11-16 14:00:00 16.5 12 Norte 20 Norte 0 -- -- 71
2017-11-16 13:00:00 16.4 13 Norte 21 Norte 0 -- -- 72
2017-11-16 12:00:00 15.9 14 Norte 19 Norte 0 -- -- 71
2017-11-16 11:00:00 15.8 15 Norte 21 Norte 0 -- -- 64
2017-11-16 10:00:00 14.5 13 Norte 20 Norte 0 -- -- 66
2017-11-16 09:00:00 13.6 7 Norte 10 Norte 0 -- -- 65
2017-11-16 08:00:00 11.6 4 Noroeste 9 Norte 0 -- -- 73
2017-11-16 07:00:00 11.6 5 Norte 13 Norte 0 -- -- 73
2017-11-16 06:00:00 11.6 8 Norte 17 Norte 0 -- -- 68
2017-11-16 05:00:00 12.2 12 Norte 20 Norte 0 -- -- 62
2017-11-16 04:00:00 12.2 13 Norte 22 Norte 0 -- -- 67
2017-11-16 03:00:00 11.8 8 Norte 18 Norte 0 -- -- 73
2017-11-16 02:00:00 12 9 Norte 17 Norte 0 -- -- 73
2017-11-16 01:00:00 12.2 12 Noroeste 21 Noroeste 0 -- -- 72
2017-11-16 00:00:00 11.2 6 Norte 13 Noroeste 0 -- -- 74
2017-11-15 23:00:00 11.1 7 Norte 19 Norte 0 -- -- 73
2017-11-15 22:00:00 11.4 14 Norte 23 Norte 0 -- -- 70
2017-11-15 21:00:00 11.5 14 Norte 21 Norte 0 -- -- 68
2017-11-15 20:00:00 11.5 13 Norte 18 Norte 0 -- -- 69
2017-11-15 19:00:00 11.6 12 Norte 21 Norte 0 -- -- 67
2017-11-15 18:00:00 11.7 14 Norte 26 Norte 0 -- -- 64
2017-11-15 17:00:00 13 15 Norte 25 Norte 0 -- -- 60
2017-11-15 16:00:00 14 19 Norte 32 Norte 0 -- -- 56
2017-11-15 15:00:00 14.4 24 Norte 35 Norte 0 -- -- 59
2017-11-15 14:00:00 14.6 22 Norte 35 Noroeste 0 -- -- 57
2017-11-15 13:00:00 14.8 26 Norte 37 Norte 0 -- -- 57
2017-11-15 12:00:00 14.8 26 Norte 42 Norte 0 -- -- 58
2017-11-15 11:00:00 14.3 30 Norte 41 Norte 0 -- -- 58
2017-11-15 10:00:00 13.9 28 Norte 39 Norte 0 -- -- 60
2017-11-15 09:00:00 13 24 Norte 35 Norte 0 -- -- 61
2017-11-15 08:00:00 11.9 19 Norte 38 Norte 0 -- -- 61
2017-11-15 07:00:00 11.9 23 Norte 40 Norte 0 -- -- 55
2017-11-15 06:00:00 11.9 23 Norte 44 Norte 0 -- -- 60
2017-11-15 05:00:00 11.8 22 Norte 41 Norte 0 -- -- 64
2017-11-15 04:00:00 11.6 23 Norte 44 Norte 0 -- -- 65
2017-11-15 03:00:00 11.4 24 Norte 48 Norte 0 -- -- 66
2017-11-15 02:00:00 11.4 30 Norte 47 Norte 0 -- -- 67
2017-11-15 01:00:00 11.5 28 Norte 46 Norte 0 -- -- 68
2017-11-15 00:00:00 11.8 28 Norte 45 Norte 0 -- -- 69
2017-11-14 23:00:00 11.4 25 Norte 46 Norte 0 -- -- 69
2017-11-14 22:00:00 11.8 28 Norte 52 Norte 0 -- -- 69
2017-11-14 21:00:00 11.6 28 Norte 47 Norte 0 -- -- 69
2017-11-14 20:00:00 11.6 29 Norte 50 Nordeste 0 -- -- 69
2017-11-14 19:00:00 11.6 33 Norte 50 Norte 0 -- -- 69
2017-11-14 18:00:00 11.4 32 Norte 51 Norte 0 -- -- 66
2017-11-14 17:00:00 11.5 29 Norte 51 Norte 0 -- -- 69
2017-11-14 16:00:00 11.4 33 Norte 54 Norte 0 -- -- 66
2017-11-14 15:00:00 11.3 36 Norte 58 Norte 0 -- -- 67
2017-11-14 14:00:00 11 38 Norte 62 Norte 0 -- -- 65
2017-11-14 13:00:00 10.9 37 Norte 57 Norte 0 -- -- 64
2017-11-14 12:00:00 10.9 38 Norte 60 Norte 0 -- -- 66
2017-11-14 11:00:00 10.7 37 Norte 73 Norte 0 -- -- 67
2017-11-14 10:00:00 10.5 40 Norte 67 Norte 0 -- -- 65
2017-11-14 09:00:00 10.3 37 Norte 68 Norte 0 -- -- 64
2017-11-14 08:00:00 10.2 39 Norte 71 Norte 0 -- -- 66
2017-11-14 07:00:00 10.1 41 Norte 75 Norte 0 -- -- 66
2017-11-14 06:00:00 9.8 40 Norte 71 Norte 0 -- -- 69
2017-11-14 05:00:00 9.7 37 Norte 66 Norte 0 -- -- 69
2017-11-14 04:00:00 8.2 39 Norte 73 Norte 1 -- -- 90
2017-11-14 03:00:00 8.5 50 Norte 80 Norte 0.2 -- -- 83
2017-11-14 02:00:00 8.9 50 Norte 81 Norte 0.6 -- -- 77
2017-11-14 01:00:00 8.4 59 Norte 84 Norte 0 -- -- 80
2017-11-14 00:00:00 8.3 52 Norte 95 Norte 1.4 -- -- 82
2017-11-13 23:00:00 10.5 58 Norte 91 Norte 0 -- -- 60
2017-11-13 22:00:00 11.2 57 Norte 87 Norte 0 -- -- 53
2017-11-13 21:00:00 11.5 52 Norte 79 Norte 0 -- -- 54
2017-11-13 20:00:00 11.5 54 Norte 91 Norte 0 -- -- 55
2017-11-13 19:00:00 11.5 56 Norte 86 Norte 0 -- -- 49
2017-11-13 18:00:00 11.5 46 Norte 74 Norte 0 -- -- 53
2017-11-13 17:00:00 11.7 51 Norte 76 Norte 0 -- -- 53
2017-11-13 16:00:00 12.2 53 Norte 88 Norte 0 -- -- 52
2017-11-13 15:00:00 12.4 57 Norte 87 Norte 0 -- -- 49
2017-11-13 14:00:00 12.3 59 Norte 89 Norte 0 -- -- 55
2017-11-13 13:00:00 12.1 57 Norte 88 Norte 0 -- -- 56
2017-11-13 12:00:00 11.3 51 Norte 81 Norte 0 -- -- 57
2017-11-13 11:00:00 11.6 51 Norte 94 Norte 0 -- -- 54
2017-11-13 10:00:00 11.4 47 Norte 81 Norte 0 -- -- 59
2017-11-13 09:00:00 11.5 41 Norte 91 Norte 0 -- -- 59
2017-11-13 08:00:00 11.9 42 Norte 74 Norte 0 -- -- 58
2017-11-13 07:00:00 12.1 37 Norte 81 Norte 0 -- -- 54
2017-11-13 06:00:00 12.1 42 Norte 80 Norte 0 -- -- 58
2017-11-13 05:00:00 12.8 36 Norte 62 Norte 0 -- -- 62
2017-11-13 04:00:00 12 26 Norte 66 Norte 0.6 -- -- 86
2017-11-13 03:00:00 17 18 Noroeste 42 Oeste 0 -- -- 76
2017-11-13 02:00:00 15.7 23 Oeste 36 Sudoeste 0 -- -- 76
2017-11-13 01:00:00 15.2 14 Sudoeste 32 Sudoeste 0 -- -- 78
2017-11-13 00:00:00 15.2 18 Oeste 32 Oeste 0 -- -- 78
2017-11-12 23:00:00 14.8 16 Sudoeste 23 Sudoeste 0 -- -- 80
2017-11-12 22:00:00 14.4 15 Sudoeste 28 Oeste 0 -- -- 81
2017-11-12 21:00:00 13.4 8 Sudoeste 14 Oeste 0 -- -- 82
2017-11-12 20:00:00 14.1 4 Sudoeste 18 Oeste 0 -- -- 79
2017-11-12 19:00:00 15 6 Oeste 22 Noroeste 0 -- -- 80
2017-11-12 18:00:00 16.2 13 Oeste 25 Oeste 0 -- -- 78
2017-11-12 17:00:00 16.7 12 Oeste 31 Noroeste 0 -- -- 74
2017-11-12 16:00:00 18.1 18 Oeste 29 Oeste 0 -- -- 67
2017-11-12 15:00:00 18.9 17 Oeste 26 Oeste 0 -- -- 64
2017-11-12 14:00:00 18 18 Oeste 28 Noroeste 0 -- -- 69
2017-11-12 13:00:00 18.5 19 Oeste 29 Oeste 0 -- -- 67
2017-11-12 12:00:00 19 19 Oeste 30 Oeste 0 -- -- 68
2017-11-12 11:00:00 18.9 23 Oeste 34 Oeste 0 -- -- 69
2017-11-12 10:00:00 17.9 19 Oeste 32 Oeste 0 -- -- 71
2017-11-12 09:00:00 16.7 8 Oeste 15 Oeste 0 -- -- 78
2017-11-12 08:00:00 14.7 7 Oeste 13 Sudoeste 0 -- -- 89
2017-11-12 07:00:00 14.2 9 Oeste 14 Sudoeste 0 -- -- 88
2017-11-12 06:00:00 14.9 8 Sudoeste 16 Oeste 0 -- -- 86
2017-11-12 05:00:00 15.7 10 Oeste 20 Oeste 0 -- -- 81
2017-11-12 04:00:00 16 14 Oeste 23 Oeste 0 -- -- 83
2017-11-12 03:00:00 16 12 Oeste 23 Oeste 0 -- -- 81
2017-11-12 02:00:00 15.4 13 Oeste 25 Oeste 0 -- -- 84
2017-11-12 01:00:00 15 14 Oeste 22 Oeste 0 -- -- 87
2017-11-12 00:00:00 13.8 7 Oeste 14 Oeste 0 -- -- 89
2017-11-11 23:00:00 13.4 8 Oeste 12 Oeste 0 -- -- 88
2017-11-11 22:00:00 13.6 6 Sudoeste 8 Sudoeste 0 -- -- 86
2017-11-11 21:00:00 13.5 5 Sudoeste 8 Sudoeste 0 -- -- 90
2017-11-11 20:00:00 13.7 4 Sudoeste 6 Sudoeste 0 -- -- 88
2017-11-11 19:00:00 13.4 3 Oeste 6 Sudoeste 0 -- -- 87
2017-11-11 18:00:00 14.5 5 Oeste 14 Noroeste 0 -- -- 81
2017-11-11 17:00:00 15.8 10 Noroeste 30 Norte 0 -- -- 78
2017-11-11 16:00:00 16.2 18 Norte 27 Norte 0 -- -- 76
2017-11-11 15:00:00 16 15 Norte 32 Norte 0 -- -- 75
2017-11-11 14:00:00 15.9 21 Norte 39 Norte 0 -- -- 76
2017-11-11 13:00:00 16.1 24 Norte 41 Norte 0 -- -- 76
2017-11-11 12:00:00 16.2 26 Norte 44 Norte 0 -- -- 73
2017-11-11 11:00:00 15.9 26 Norte 46 Norte 0 -- -- 74
2017-11-11 10:00:00 15.2 27 Norte 50 Norte 0 -- -- 76
2017-11-11 09:00:00 15.2 26 Norte 51 Norte 0 -- -- 75
2017-11-11 08:00:00 14.9 27 Norte 58 Norte 0 -- -- 72
2017-11-11 07:00:00 15 26 Norte 57 Norte 0 -- -- 73
2017-11-11 06:00:00 15.1 32 Norte 50 Norte 0 -- -- 69
2017-11-11 05:00:00 15.5 23 Norte 38 Norte 0 -- -- 66
2017-11-11 04:00:00 15.4 14 Noroeste 28 Noroeste 0 -- -- 66
2017-11-11 03:00:00 15.1 13 Noroeste 25 Noroeste 0 -- -- 68
2017-11-11 02:00:00 14.6 14 Noroeste 30 Norte 0 -- -- 77
2017-11-11 01:00:00 14.2 18 Norte 44 Norte 0 -- -- 78
2017-11-11 00:00:00 14.2 24 Norte 55 Norte -- -- -- 74
2017-11-10 23:00:00 14.8 35 Norte 63 Norte 0 -- -- 69
2017-11-10 22:00:00 14.8 39 Norte 63 Norte 0 -- -- 68
2017-11-10 21:00:00 14.5 40 Norte 63 Norte 0 -- -- 68
2017-11-10 20:00:00 13.9 31 Norte 53 Norte 0 -- -- 70
2017-11-10 19:00:00 13.4 31 Norte 46 Norte 0 -- -- 67
2017-11-10 18:00:00 12.9 29 Norte 47 Norte 0 -- -- 72
2017-11-10 17:00:00 12.9 28 Norte 43 Norte 0 -- -- 74
2017-11-10 16:00:00 12.8 25 Norte 48 Norte 0 -- -- 75
2017-11-10 15:00:00 13 29 Norte 49 Norte 0 -- -- 73
2017-11-10 14:00:00 13 29 Norte 48 Norte 0 -- -- 71
2017-11-10 13:00:00 12.8 31 Norte 48 Norte 0 -- -- 72
2017-11-10 12:00:00 12.5 31 Norte 45 Norte 0 -- -- 73
2017-11-10 11:00:00 12.3 25 Norte 51 Norte 0 -- -- 74
2017-11-10 10:00:00 11.9 30 Norte 53 Norte 0 -- -- 75
2017-11-10 09:00:00 11.9 23 Norte 50 Norte 0 -- -- 75
2017-11-10 08:00:00 11.5 34 Norte 54 Norte 0 -- -- 76
2017-11-10 07:00:00 11.6 31 Norte 53 Norte 0 -- -- 72
2017-11-10 06:00:00 11.6 33 Norte 55 Norte 0 -- -- 73
2017-11-10 05:00:00 11.7 30 Norte 50 Norte 0 -- -- 74
2017-11-10 04:00:00 11.6 30 Norte 56 Norte 0 -- -- 73
2017-11-10 03:00:00 11.5 36 Norte 60 Norte 0 -- -- 77
2017-11-10 02:00:00 11.2 35 Norte 54 Norte 0 -- -- 78
2017-11-10 01:00:00 10.2 29 Norte 50 Norte 1.8 -- -- 90
2017-11-10 00:00:00 11.7 31 Norte 47 Norte 0 -- -- 73
2017-11-09 23:00:00 12.1 24 Norte 39 Norte 0 -- -- 69
2017-11-09 22:00:00 12 23 Norte 40 Norte 0 -- -- 65
2017-11-09 21:00:00 12 23 Norte 45 Nordeste 0 -- -- 67
2017-11-09 20:00:00 11.8 27 Norte 51 Norte 0 -- -- 64
2017-11-09 19:00:00 11.3 21 Norte 55 Norte 0 -- -- 74
2017-11-09 18:00:00 12.1 30 Norte 49 Norte 0 -- -- 65
2017-11-09 17:00:00 12.1 28 Norte 41 Norte 0 -- -- 63
2017-11-09 16:00:00 12.1 24 Norte 42 Norte 0 -- -- 65
2017-11-09 15:00:00 12.4 25 Norte 40 Norte 0 -- -- 67
2017-11-09 14:00:00 12.5 28 Norte 41 Norte 0 -- -- 67
2017-11-09 13:00:00 12.8 24 Norte 38 Norte 0 -- -- 69
2017-11-09 12:00:00 12.4 21 Norte 41 Norte 0 -- -- 67
2017-11-09 11:00:00 12.3 23 Norte 35 Nordeste 0 -- -- 67
2017-11-09 10:00:00 12.3 22 Nordeste 37 Nordeste 0 -- -- 69
2017-11-09 09:00:00 12.1 25 Nordeste 40 Norte 0 -- -- 66
2017-11-09 08:00:00 12.1 23 Nordeste 41 Nordeste 0 -- -- 62
2017-11-09 07:00:00 12 22 Nordeste 36 Nordeste 0 -- -- 69
2017-11-09 06:00:00 12.1 19 Nordeste 35 Norte 0 -- -- 66
2017-11-09 05:00:00 12 22 Nordeste 41 Nordeste 0 -- -- 70
2017-11-09 04:00:00 11.8 24 Nordeste 43 Nordeste 0 -- -- 70
2017-11-09 03:00:00 11.6 26 Nordeste 42 Nordeste 0 -- -- 74
2017-11-09 02:00:00 11.3 24 Norte 39 Nordeste 0.4 -- -- 75
2017-11-09 01:00:00 10.7 24 Nordeste 41 Norte 0.6 -- -- 79
2017-11-09 00:00:00 10.8 24 Nordeste 47 Nordeste 0.4 -- -- 83
2017-11-08 23:00:00 12 29 Nordeste 46 Nordeste 0 -- -- 81
2017-11-08 22:00:00 11.9 25 Nordeste 42 Nordeste 0 -- -- 80
2017-11-08 21:00:00 11.8 18 Nordeste 39 Nordeste 0 -- -- 89
2017-11-08 20:00:00 12.4 19 Nordeste 30 Nordeste 0 -- -- 92
2017-11-08 19:00:00 13.4 9 Norte 27 Este 0 -- -- 85
2017-11-08 18:00:00 13.8 17 Sudeste 40 Este 0 -- -- 79
2017-11-08 17:00:00 14.1 23 Este 38 Este 0 -- -- 79
2017-11-08 16:00:00 14.6 22 Este 33 Este 0 -- -- 80
2017-11-08 15:00:00 15.5 18 Este 27 Este 0 -- -- 73
2017-11-08 14:00:00 17.9 8 Oeste 22 Sudoeste 0 -- -- 56
2017-11-08 13:00:00 16.3 6 Noroeste 15 Oeste 0 -- -- 60
2017-11-08 12:00:00 14.3 13 Oeste 21 Oeste 0 -- -- 76
2017-11-08 11:00:00 14.4 7 Sudoeste 10 Sudoeste 0 -- -- 75
2017-11-08 10:00:00 13 3 Sudoeste 8 Sur 0 -- -- 72
2017-11-08 09:00:00 12.4 4 Sur 9 Sudeste 0 -- -- 71
2017-11-08 08:00:00 11.5 4 Sudoeste 11 Sur 0 -- -- 69
2017-11-08 07:00:00 10.3 4 Sur 5 Sur 0 -- -- 75
2017-11-08 06:00:00 10.7 3 Sur 4 Sudoeste 0 -- -- 74
2017-11-08 05:00:00 11.6 3 Sur 4 Sudoeste 0 -- -- 68
2017-11-08 04:00:00 10.3 3 Sur 8 Sudeste 0 -- -- 72
2017-11-08 03:00:00 10 6 Norte 12 Sudoeste 0 -- -- 73
2017-11-08 02:00:00 10.6 8 Sudoeste 13 Sudoeste 0 -- -- 69
2017-11-08 01:00:00 10.6 10 Sudoeste 13 Sudoeste 0 -- -- 67
2017-11-08 00:00:00 10.9 10 Sudoeste 12 Sudoeste 0 -- -- 64
2017-11-07 23:00:00 10.1 9 Oeste 12 Oeste 0 -- -- 66
2017-11-07 22:00:00 10.5 6 Oeste 10 Sudoeste 0 -- -- 67
2017-11-07 21:00:00 10.8 8 Sudoeste 10 Sudoeste 0 -- -- 70
2017-11-07 20:00:00 11.3 6 Oeste 19 Sudoeste 0 -- -- 68
2017-11-07 19:00:00 11.9 13 Oeste 18 Oeste 0 -- -- 71
2017-11-07 18:00:00 12.6 6 Sudoeste 10 Oeste 0 -- -- 72
2017-11-07 17:00:00 14.6 3 Norte 13 Noroeste 0 -- -- 66
2017-11-07 16:00:00 14.6 5 Noroeste 18 Noroeste 0 -- -- 66
2017-11-07 15:00:00 14.3 13 Norte 25 Noroeste 0 -- -- 64
2017-11-07 14:00:00 14.1 16 Norte 25 Norte 0 -- -- 64
2017-11-07 13:00:00 13.1 17 Norte 35 Norte 0 -- -- 64
2017-11-07 12:00:00 13.9 28 Norte 40 Norte 0 -- -- 62
2017-11-07 11:00:00 13.9 25 Norte 45 Norte 0 -- -- 61
2017-11-07 10:00:00 13.3 21 Norte 41 Norte 0 -- -- 65
2017-11-07 09:00:00 12.1 27 Norte 45 Norte 0 -- -- 66
2017-11-07 08:00:00 11.4 23 Norte 46 Norte 0 -- -- 68
2017-11-07 07:00:00 11.2 28 Norte 50 Norte 0 -- -- 67
2017-11-07 06:00:00 11.2 30 Norte 54 Norte 0 -- -- 65
2017-11-07 05:00:00 11.3 28 Norte 63 Norte 0 -- -- 64
2017-11-07 04:00:00 11.4 33 Norte 62 Norte 0 -- -- 65
2017-11-07 03:00:00 11.5 30 Norte 58 Norte 0 -- -- 64
2017-11-07 02:00:00 11.5 33 Norte 59 Norte 0 -- -- 56
2017-11-07 01:00:00 11.5 34 Norte 56 Norte 0 -- -- 56
2017-11-07 00:00:00 11.5 32 Norte 68 Norte 0 -- -- 57
2017-11-06 23:00:00 11.9 35 Norte 60 Norte 0 -- -- 57
2017-11-06 22:00:00 11.9 35 Norte 63 Norte 0 -- -- 55
2017-11-06 21:00:00 12.1 37 Norte 63 Norte 0 -- -- 52
2017-11-06 20:00:00 12.1 33 Norte 64 Norte 0 -- -- 53
2017-11-06 19:00:00 12.3 33 Norte 58 Norte 0 -- -- 52
2017-11-06 18:00:00 12.5 29 Norte 56 Norte 0 -- -- 54
2017-11-06 17:00:00 12.8 33 Norte 57 Norte 0 -- -- 43
2017-11-06 16:00:00 13.7 28 Norte 46 Noroeste 0 -- -- 42
2017-11-06 15:00:00 11.2 21 Oeste 60 Noroeste 0.2 -- -- 57
2017-11-06 14:00:00 10.1 46 Noroeste 78 Noroeste 0 -- -- 68
2017-11-06 13:00:00 13.9 39 Norte 60 Norte 0 -- -- 43
2017-11-06 12:00:00 13.2 29 Noroeste 62 Norte 0 -- -- 49
2017-11-06 11:00:00 13.9 35 Norte 58 Norte 0 -- -- 46
2017-11-06 10:00:00 14.4 38 Norte 59 Norte 0 -- -- 44
2017-11-06 09:00:00 13.2 31 Norte 48 Noroeste 0 -- -- 51
2017-11-06 08:00:00 12.4 26 Norte 52 Norte 0 -- -- 60
2017-11-06 07:00:00 11.8 30 Norte 49 Noroeste 0.2 -- -- 58
2017-11-06 06:00:00 10.6 20 Norte 53 Norte 0 -- -- 67
2017-11-06 05:00:00 8.9 24 Norte 52 Norte 2 -- -- 80
2017-11-06 04:00:00 8.8 24 Norte 51 Norte 1.2 -- -- 87
2017-11-06 03:00:00 9.7 27 Norte 44 Norte 2 -- -- 85
2017-11-06 02:00:00 9.5 21 Norte 45 Norte 2.8 -- -- 91
2017-11-06 01:00:00 10.4 26 Norte 44 Norte 2.6 -- -- 85
2017-11-06 00:00:00 11.7 19 Norte 36 Norte 0.4 -- -- 85
2017-11-05 23:00:00 11.2 18 Norte 39 Norte 2.6 -- -- 95
2017-11-05 22:00:00 14 23 Nordeste 41 Nordeste 0 -- -- 70
2017-11-05 21:00:00 13.8 22 Norte 35 Norte 0.2 -- -- 72
2017-11-05 20:00:00 13.3 21 Nordeste 37 Norte 0.2 -- -- 80
2017-11-05 19:00:00 13.3 15 Nordeste 30 Nordeste 0.2 -- -- 80
2017-11-05 18:00:00 13.1 13 Nordeste 30 Nordeste 0.8 -- -- 89
2017-11-05 17:00:00 13.6 16 Nordeste 34 Este 1 -- -- 90
2017-11-05 16:00:00 13.3 22 Norte 38 Norte 2.4 -- -- 92
2017-11-05 15:00:00 16.3 18 Norte 33 Norte 0 -- -- 70
2017-11-05 14:00:00 16.5 18 Nordeste 40 Norte 0 -- -- 72
2017-11-05 13:00:00 17.2 24 Norte 42 Nordeste 0 -- -- 67
2017-11-05 12:00:00 17.8 26 Nordeste 39 Nordeste 0 -- -- 63
2017-11-05 11:00:00 18.1 16 Nordeste 33 Nordeste 0 -- -- 73
2017-11-05 10:00:00 17.9 13 Norte 23 Norte 0 -- -- 79
2017-11-05 09:00:00 16.3 5 Nordeste 12 Nordeste 0.2 -- -- 95
2017-11-05 08:00:00 15.3 7 Norte 19 Norte 0 -- -- 92
2017-11-05 07:00:00 15.6 15 Norte 28 Noroeste 2.8 -- -- 91
2017-11-05 06:00:00 16.2 12 Oeste 24 Sudoeste 0 -- -- 85
2017-11-05 05:00:00 16.2 15 Oeste 23 Sudoeste 0 -- -- 85
2017-11-05 04:00:00 15.7 14 Oeste 26 Sudoeste 0 -- -- 86
2017-11-05 03:00:00 16.3 18 Sudoeste 27 Sudoeste 0 -- -- 84
2017-11-05 02:00:00 17.1 18 Oeste 27 Sudoeste 0 -- -- 88
2017-11-05 01:00:00 16.7 15 Oeste 32 Sudoeste 0 -- -- 90
2017-11-05 00:00:00 17.7 21 Sudoeste 45 Sudoeste 0 -- -- 84
2017-11-04 23:00:00 17.6 26 Sudoeste 34 Sudoeste 0 -- -- 88
2017-11-04 22:00:00 15 16 Sur 51 Oeste 2.4 -- -- 95
2017-11-04 21:00:00 19.6 23 Sudoeste 47 Sudoeste 0 -- -- 84
2017-11-04 20:00:00 18.7 15 Sudoeste 21 Sur 0 -- -- 91
2017-11-04 19:00:00 18.7 7 Sudoeste 10 Sur 0 -- -- 86
2017-11-04 18:00:00 19.7 6 Sudoeste 14 Sudoeste 0 -- -- 79
2017-11-04 17:00:00 22 10 Oeste 19 Sudoeste 0 -- -- 70
2017-11-04 16:00:00 22.6 14 Oeste 24 Sudoeste 0 -- -- 75
2017-11-04 15:00:00 22.1 18 Sudoeste 27 Sudoeste 0 -- -- 78
2017-11-04 14:00:00 22.9 16 Sudoeste 27 Sur 0 -- -- 71
2017-11-04 13:00:00 23.7 17 Sur 25 Sudeste 0 -- -- 59
2017-11-04 12:00:00 23.9 12 Sudeste 22 Sudeste 0 -- -- 69
2017-11-04 11:00:00 23.1 6 Este 22 Sudeste 0 -- -- 74
2017-11-04 10:00:00 21.6 10 Sudeste 17 Este 0 -- -- 85
2017-11-04 09:00:00 18.6 0 Calma 7 Este 0 -- -- 96
2017-11-04 08:00:00 18.2 0 Calma 9 Norte 0 -- -- 96
2017-11-04 07:00:00 18.7 8 Sur 25 Sudeste 0 -- -- 94
2017-11-04 06:00:00 18.6 8 Este 21 Este 0 -- -- 95
2017-11-04 05:00:00 18.5 4 Sudeste 28 Este 0 -- -- 93
2017-11-04 04:00:00 18.4 16 Este 31 Este 0 -- -- 94
2017-11-04 03:00:00 17.8 0 Calma 8 Sudeste 0 -- -- 94
2017-11-04 02:00:00 18.1 3 Sur 26 Este 0 -- -- 92
2017-11-04 01:00:00 17.9 5 Sudeste 14 Sur 0 -- -- 92
2017-11-04 00:00:00 18.1 10 Sudeste 18 Sudeste 0 -- -- 91
2017-11-03 23:00:00 18.1 14 Sudeste 21 Sudeste 0 -- -- 89
2017-11-03 22:00:00 18 10 Sur 19 Sudeste 0 -- -- 89
2017-11-03 21:00:00 17.9 11 Sur 17 Sudeste 0 -- -- 88
2017-11-03 20:00:00 17.9 10 Sur 14 Sur 0 -- -- 87
2017-11-03 19:00:00 18.2 7 Sudeste 12 Sudeste 0 -- -- 84
2017-11-03 18:00:00 18.9 9 Sur 16 Sur 0 -- -- 81
2017-11-03 17:00:00 21 8 Sudoeste 15 Sur 0 -- -- 72
2017-11-03 16:00:00 21.9 9 Sur 18 Sur 0 -- -- 68
2017-11-03 15:00:00 22.6 12 Sur 22 Sudoeste 0 -- -- 65
2017-11-03 14:00:00 23.2 14 Sudoeste 22 Sudoeste 0 -- -- 62
2017-11-03 13:00:00 23.2 11 Sur 21 Sudeste 0 -- -- 62
2017-11-03 12:00:00 22.5 10 Sur 23 Sudeste 0 -- -- 65
2017-11-03 11:00:00 22.2 9 Este 17 Sudeste 0 -- -- 64
2017-11-03 10:00:00 21.2 9 Este 17 Este 0 -- -- 69
2017-11-03 09:00:00 17.3 0 Calma 4 Sur 0 -- -- 89
2017-11-03 08:00:00 15.2 0 Calma 3 Sudoeste 0 -- -- 93
2017-11-03 07:00:00 14.8 3 Oeste 4 Oeste 0 -- -- 94
2017-11-03 06:00:00 14.7 3 Oeste 5 Oeste 0 -- -- 94
2017-11-03 05:00:00 14.1 2 Sudoeste 6 Sudeste 0 -- -- 94
2017-11-03 04:00:00 14.5 3 Sudoeste 4 Oeste 0 -- -- 94
2017-11-03 03:00:00 14.7 0 Calma 4 Sur 0 -- -- 94
2017-11-03 02:00:00 14.8 3 Sur 6 Oeste 0 -- -- 93
2017-11-03 01:00:00 15 3 Sur 6 Sur 0 -- -- 90
2017-11-03 00:00:00 15.6 2 Sur 11 Sudeste 0 -- -- 89
2017-11-02 23:00:00 15.8 7 Sur 10 Sur 0 -- -- 89
2017-11-02 22:00:00 15.3 5 Sur 7 Sudeste 0 -- -- 89
2017-11-02 21:00:00 15.5 4 Sur 6 Sur 0 -- -- 87
2017-11-02 20:00:00 16 6 Sur 9 Sudeste 0 -- -- 85
2017-11-02 19:00:00 16.9 4 Sur 10 Sur 0 -- -- 81
2017-11-02 18:00:00 18.1 6 Sur 13 Sur 0 -- -- 75
2017-11-02 17:00:00 20.2 11 Sudoeste 15 Sur 0 -- -- 66
2017-11-02 16:00:00 21.4 12 Sudoeste 21 Sudoeste 0 -- -- 63
2017-11-02 15:00:00 21.7 13 Sudoeste 20 Sudoeste 0 -- -- 62
2017-11-02 14:00:00 22.4 15 Sudoeste 24 Sudoeste 0 -- -- 59
2017-11-02 13:00:00 22.1 10 Sur 19 Sudoeste 0 -- -- 59
2017-11-02 12:00:00 21.8 11 Sudoeste 22 Sudoeste 0 -- -- 59
2017-11-02 11:00:00 21.5 8 Sudoeste 15 Sur 0 -- -- 58
2017-11-02 10:00:00 20.2 9 Sudeste 13 Sudeste 0 -- -- 66
2017-11-02 09:00:00 17.9 6 Sudeste 9 Sudeste 0 -- -- 77
2017-11-02 08:00:00 14.7 4 Sur 8 Sur 0 -- -- 90
2017-11-02 07:00:00 13.9 5 Sur 8 Sudeste 0 -- -- 93
2017-11-02 06:00:00 14.4 4 Sur 6 Sudeste 0 -- -- 94
2017-11-02 05:00:00 14.4 3 Sur 4 Sur 0 -- -- 93
2017-11-02 04:00:00 13.5 3 Oeste 6 Sur 0 -- -- 94
2017-11-02 03:00:00 14.1 3 Sur 4 Sudoeste 0 -- -- 93
2017-11-02 02:00:00 13.8 3 Sur 4 Sur 0 -- -- 93
2017-11-02 01:00:00 14 2 Sur 4 Sudoeste 0 -- -- 91
2017-11-02 00:00:00 14 2 Sudoeste 5 Sudoeste 0 -- -- 89
2017-11-01 23:00:00 14 4 Oeste 5 Oeste 0 -- -- 89
2017-11-01 22:00:00 13.7 4 Oeste 5 Oeste 0 -- -- 89
2017-11-01 21:00:00 14.1 3 Sudoeste 4 Sudoeste 0 -- -- 89
2017-11-01 20:00:00 14.6 3 Sur 5 Sudeste 0 -- -- 88
2017-11-01 19:00:00 15.4 2 Sur 4 Sur 0 -- -- 85
2017-11-01 18:00:00 16.7 3 Oeste 4 Oeste 0 -- -- 80
2017-11-01 17:00:00 17.9 4 Norte 11 Noroeste 0 -- -- 76
2017-11-01 16:00:00 18.6 9 Noroeste 18 Norte 0 -- -- 73
2017-11-01 15:00:00 19.5 10 Norte 19 Norte 0 -- -- 69
2017-11-01 14:00:00 19.3 12 Norte 18 Norte 0 -- -- 67
2017-11-01 13:00:00 20 10 Norte -- -- -- -- -- 64
2017-11-01 12:00:00 -- 9 Norte -- -- -- -- -- --
2017-11-01 11:00:00 19.7 6 Norte 17 Norte 0 -- -- 66
2017-11-01 10:00:00 19.1 6 Norte 9 Norte 0 -- -- 73
2017-11-01 09:00:00 17.2 0 Calma 4 Sudoeste 0 -- -- 85
2017-11-01 08:00:00 14.4 2 Sudoeste 3 Sudeste 0 -- -- 92
2017-11-01 07:00:00 13.9 2 Oeste 3 Oeste 0 -- -- 92
2017-11-01 06:00:00 13.9 0 Calma 2 Sudeste 0 -- -- 93
2017-11-01 05:00:00 13.8 0 Calma 4 Noroeste 0 -- -- 93
2017-11-01 04:00:00 13.9 0 Calma 5 Norte 0 -- -- 92
2017-11-01 03:00:00 14.2 0 Calma 3 Noroeste 0 -- -- 93
2017-11-01 02:00:00 14.5 0 Calma 4 Nordeste 0 -- -- 92
2017-11-01 01:00:00 14.7 0 Calma 8 Norte 0 -- -- 91
2017-11-01 00:00:00 15.1 6 Norte 9 Norte 0 -- -- 90
2017-10-31 23:00:00 15.5 6 Norte 10 Norte 0 -- -- 89
2017-10-31 22:00:00 15.7 4 Norte 11 Norte 0 -- -- 89
2017-10-31 21:00:00 16.3 9 Norte 14 Norte 0 -- -- 85
2017-10-31 20:00:00 16.3 9 Norte 14 Norte 0 -- -- 87
2017-10-31 19:00:00 16.5 9 Norte 17 Norte 0 -- -- 87
2017-10-31 18:00:00 16.9 13 Norte 25 Norte 0 -- -- 85
2017-10-31 17:00:00 17.4 17 Norte 29 Norte 0 -- -- 84
2017-10-31 16:00:00 18 19 Norte 31 Norte 0 -- -- 80
2017-10-31 15:00:00 18.5 18 Norte 27 Norte 0 -- -- 77
2017-10-31 14:00:00 19.2 16 Norte 29 Norte 0 -- -- 75
2017-10-31 13:00:00 18.3 19 Norte 31 Norte 0 -- -- 76
2017-10-31 12:00:00 18.4 18 Norte 32 Norte 0 -- -- 74
2017-10-31 11:00:00 17.9 19 Norte 30 Norte 0 -- -- 75
2017-10-31 10:00:00 17.4 20 Norte 29 Norte 0 -- -- 74
2017-10-31 09:00:00 16.9 17 Norte 29 Nordeste 0 -- -- 72
2017-10-31 08:00:00 15.9 16 Norte 28 Norte 0 -- -- 71
2017-10-31 07:00:00 15.4 18 Norte 27 Norte 0 -- -- 71
2017-10-31 06:00:00 15.1 13 Norte 22 Norte 0 -- -- 72
2017-10-31 05:00:00 15.1 12 Norte 21 Nordeste 0 -- -- 73
2017-10-31 04:00:00 15.4 15 Norte 24 Norte 0 -- -- 73
2017-10-31 03:00:00 15.6 14 Norte 24 Norte 0 -- -- 68
2017-10-31 02:00:00 15.8 17 Norte 26 Nordeste 0 -- -- 66
2017-10-31 01:00:00 16 16 Norte 36 Norte 0 -- -- 70
2017-10-31 00:00:00 16.3 21 Norte 34 Norte 0 -- -- 68
2017-10-30 23:00:00 16.7 21 Norte 39 Norte 0 -- -- 66
2017-10-30 22:00:00 17.2 21 Norte 35 Norte 0 -- -- 63
2017-10-30 21:00:00 17.2 21 Norte 36 Norte 0 -- -- 68
2017-10-30 20:00:00 17.3 19 Nordeste 33 Nordeste 0 -- -- 74
2017-10-30 19:00:00 17 13 Norte 21 Norte 0 -- -- 76
2017-10-30 18:00:00 16.4 4 Nordeste 19 Nordeste 0 -- -- 87
2017-10-30 17:00:00 16.9 20 Nordeste 30 Nordeste 0 -- -- 85
2017-10-30 16:00:00 18.1 17 Nordeste 22 Nordeste 0 -- -- 77
2017-10-30 15:00:00 18.3 6 Norte 13 Norte 0 -- -- 80
2017-10-30 14:00:00 16.6 12 Norte 15 Norte 0 -- -- 86
2017-10-30 13:00:00 18.1 10 Nordeste 21 Nordeste 0 -- -- 75
2017-10-30 12:00:00 19 16 Nordeste 22 Nordeste 0 -- -- 68
2017-10-30 11:00:00 18.7 5 Norte 15 Norte 0 -- -- 75
2017-10-30 10:00:00 19.4 11 Norte 15 Norte 0 -- -- 70
2017-10-30 09:00:00 18.1 6 Norte 12 Norte 0 -- -- 79
2017-10-30 08:00:00 15.4 3 Nordeste 9 Norte 0 -- -- 82
2017-10-30 07:00:00 15.9 3 Sudeste 5 Sudeste 0 -- -- 79
2017-10-30 06:00:00 14.9 0 Calma 5 Oeste 0 -- -- 81
2017-10-30 05:00:00 14.1 4 Sudoeste 9 Sudoeste 0 -- -- 84
2017-10-30 04:00:00 14.9 6 Sur 18 Norte 0 -- -- 82
2017-10-30 03:00:00 16.5 13 Norte 17 Norte 0 -- -- 78
2017-10-30 02:00:00 16.3 9 Norte 15 Norte 0 -- -- 79
2017-10-30 01:00:00 16.3 6 Norte 12 Norte 0 -- -- 79
2017-10-30 00:00:00 16.7 8 Norte 16 Norte 0 -- -- 80
2017-10-29 23:00:00 16.5 9 Norte 16 Noroeste 0 -- -- 83
2017-10-29 22:00:00 16.5 8 Oeste 17 Oeste 0 -- -- 77
2017-10-29 21:00:00 17.3 11 Oeste 22 Noroeste 0 -- -- 74
2017-10-29 20:00:00 18.2 12 Noroeste 24 Noroeste 0 -- -- 72
2017-10-29 19:00:00 18.1 9 Noroeste 23 Noroeste 0 -- -- 80
2017-10-29 18:00:00 19 11 Noroeste 30 Oeste 0 -- -- 78
2017-10-29 17:00:00 20.8 13 Noroeste 36 Oeste 0 -- -- 65
2017-10-29 16:00:00 22.1 17 Oeste 37 Oeste 0 -- -- 63
2017-10-29 15:00:00 22.6 23 Oeste 36 Oeste 0 -- -- 57
2017-10-29 14:00:00 23 22 Oeste 35 Oeste 0 -- -- 59
2017-10-29 13:00:00 23 22 Oeste 30 Sudoeste 0 -- -- 54
2017-10-29 12:00:00 22.8 19 Oeste 32 Oeste 0 -- -- 61
2017-10-29 11:00:00 22 18 Oeste 29 Oeste 0 -- -- 59
2017-10-29 10:00:00 20.7 12 Noroeste 21 Noroeste 0 -- -- 71
2017-10-29 09:00:00 18.7 0 Calma 6 Oeste 0 -- -- 81
2017-10-29 08:00:00 15.8 4 Oeste 10 Sudoeste 0 -- -- 91
2017-10-29 07:00:00 15 6 Sudoeste 9 Sudoeste 0 -- -- 93
2017-10-29 06:00:00 15.7 2 Norte 6 Nordeste 0 -- -- 89
2017-10-29 05:00:00 16.5 3 Nordeste 8 Norte 0 -- -- 87
2017-10-29 04:00:00 16.8 5 Norte 24 Oeste 0 -- -- 90
2017-10-29 03:00:00 16.4 11 Sudoeste 19 Sudoeste 0 -- -- 90
2017-10-29 02:00:00 16 11 Sudoeste 16 Sudoeste 0 -- -- 92
2017-10-29 01:00:00 15.8 7 Oeste 10 Oeste 0 -- -- 89
2017-10-29 00:00:00 16 6 Oeste 9 Oeste 0 -- -- 88
2017-10-28 23:00:00 16 6 Oeste 12 Oeste 0 -- -- 86
2017-10-28 22:00:00 15.8 6 Sudoeste 9 Sudoeste 0 -- -- 83
2017-10-28 21:00:00 16.1 4 Sudoeste 6 Sudoeste 0 -- -- 80
2017-10-28 20:00:00 17.2 4 Noroeste 15 Nordeste 0 -- -- 72
2017-10-28 19:00:00 18.5 13 Norte 33 Nordeste 0 -- -- 66
2017-10-28 18:00:00 19.1 18 Nordeste 45 Nordeste 0 -- -- 60
2017-10-28 17:00:00 19.2 24 Norte 47 Nordeste 0 -- -- 49
2017-10-28 16:00:00 19.1 31 Nordeste 50 Norte 0 -- -- 47
2017-10-28 15:00:00 19.2 30 Norte 50 Norte 0 -- -- 49
2017-10-28 14:00:00 18.9 32 Norte 53 Norte 0 -- -- 54
2017-10-28 13:00:00 19 33 Norte 54 Norte 0 -- -- 57
2017-10-28 12:00:00 18.7 35 Norte 52 Norte 0 -- -- 55
2017-10-28 11:00:00 18.4 39 Norte 57 Norte 0 -- -- 54
2017-10-28 10:00:00 18 32 Norte 54 Norte 0 -- -- 55
2017-10-28 09:00:00 17.7 30 Norte 57 Norte 0 -- -- 57
2017-10-28 08:00:00 17 31 Norte 64 Norte 0 -- -- 71
2017-10-28 07:00:00 17.4 49 Norte 77 Norte 0 -- -- 66
2017-10-28 06:00:00 18.1 53 Norte 77 Norte 0 -- -- 67
2017-10-28 05:00:00 18.5 52 Norte 77 Norte 0 -- -- 67
2017-10-28 04:00:00 18.6 52 Norte 80 Norte 0 -- -- 65
2017-10-28 03:00:00 19.2 51 Norte 81 Norte 0 -- -- 61
2017-10-28 02:00:00 19.5 41 Norte 72 Norte 0 -- -- 67
2017-10-28 01:00:00 20.1 42 Norte 68 Norte 0 -- -- 63
2017-10-28 00:00:00 20.3 32 Norte 55 Norte 0 -- -- 62
2017-10-27 23:00:00 19.9 27 Norte 52 Norte 0 -- -- 66
2017-10-27 22:00:00 20 29 Norte 48 Norte 0 -- -- 66
2017-10-27 21:00:00 20 21 Norte 47 Norte 0 -- -- 66
2017-10-27 20:00:00 20.4 21 Norte 36 Norte 0 -- -- 75
2017-10-27 19:00:00 20 21 Norte 33 Norte 0 -- -- 80
2017-10-27 18:00:00 21 16 Noroeste 24 Noroeste 0 -- -- 83
2017-10-27 17:00:00 22.1 10 Noroeste 26 Noroeste 0 -- -- 77
2017-10-27 16:00:00 23.3 18 Norte 25 Norte 0 -- -- 72
2017-10-27 15:00:00 24.7 17 Oeste 25 Oeste 0 -- -- 57
2017-10-27 14:00:00 25.4 7 Noroeste 17 Norte 0 -- -- 50
2017-10-27 13:00:00 24.5 4 Norte 13 Noroeste 0 -- -- 59
2017-10-27 12:00:00 23.6 7 Noroeste 13 Oeste 0 -- -- 74
2017-10-27 11:00:00 22.2 5 Oeste 13 Noroeste 0 -- -- 83
2017-10-27 10:00:00 20.8 3 Oeste 9 Noroeste 0 -- -- 92
2017-10-27 09:00:00 18.5 0 Calma 6 Oeste 0 -- -- 97
2017-10-27 08:00:00 17.7 5 Oeste 8 Oeste 0 -- -- 96
2017-10-27 07:00:00 17.8 2 Oeste 8 Oeste 0 -- -- 95
2017-10-27 06:00:00 17.7 4 Oeste 7 Oeste 0 -- -- 96
2017-10-27 05:00:00 17.6 3 Sudoeste 9 Sudoeste 0 -- -- 97
2017-10-27 04:00:00 17.5 8 Sudoeste 9 Sudoeste 0 -- -- 97
2017-10-27 03:00:00 17.4 5 Oeste 10 Oeste 0 -- -- 97
2017-10-27 02:00:00 17.7 5 Oeste 9 Noroeste 0 -- -- 97
2017-10-27 01:00:00 18.3 7 Sudoeste 9 Oeste 0 -- -- 97
2017-10-27 00:00:00 18.5 4 Oeste 15 Sur 0 -- -- 95
2017-10-26 23:00:00 18.8 8 Sur 14 Sudoeste 0 -- -- 95
2017-10-26 22:00:00 18.5 6 Sur 17 Sudoeste 0 -- -- 94
2017-10-26 21:00:00 18.7 12 Sudoeste 16 Sudoeste 0 -- -- 92
2017-10-26 20:00:00 19.1 8 Sur 10 Sur 0 -- -- 89
2017-10-26 19:00:00 20 8 Sudoeste 14 Sudoeste 0 -- -- 85
2017-10-26 18:00:00 22.2 11 Sur 17 Sur 0 -- -- 77
2017-10-26 17:00:00 23.6 11 Sudoeste 19 Sudoeste 0 -- -- 69
2017-10-26 16:00:00 24.2 11 Sudoeste 18 Sudoeste 0 -- -- 64
2017-10-26 15:00:00 23.8 15 Sudoeste 24 Sudoeste 0 -- -- 67
2017-10-26 14:00:00 23.9 12 Sur 21 Sur 0 -- -- 71
2017-10-26 13:00:00 23.3 14 Sudoeste 21 Sudoeste 0 -- -- 71
2017-10-26 12:00:00 22.4 12 Sudoeste 19 Sudoeste 0 -- -- 79
2017-10-26 11:00:00 21.3 13 Sudoeste 18 Sudoeste 0 -- -- 84
2017-10-26 10:00:00 19.8 8 Sur 13 Sur 0 -- -- 92
2017-10-26 09:00:00 17.5 6 Sur 9 Sur 0 -- -- 99
2017-10-26 08:00:00 16.6 6 Sur 9 Sur 0 -- -- 98
2017-10-26 07:00:00 16.9 2 Sudoeste 7 Sur 0 -- -- 98
2017-10-26 06:00:00 17.5 4 Sudoeste 6 Sur 0 -- -- 98
2017-10-26 05:00:00 17.7 4 Sur 9 Sudoeste 0 -- -- 98
2017-10-26 04:00:00 17.8 7 Sudoeste 11 Sudoeste 0 -- -- 98
2017-10-26 03:00:00 17.9 9 Sudoeste 12 Sur 0 -- -- 97
2017-10-26 02:00:00 18.1 10 Sudoeste 12 Sur 0 -- -- 97
2017-10-26 01:00:00 18.1 9 Sudoeste 12 Sudoeste 0 -- -- 96
2017-10-26 00:00:00 18 11 Sur 13 Sur 0 -- -- 94